Time;durP1;ratioP1;P1;durP2;ratioP2;P2;SDS_P1;SDS_P2;PMS_P1;PMS_P2;Temp;Humidity;BMP_temperature;BMP_pressure;BME280_temperature;BME280_humidity;BME280_pressure;Samples;Min_cycle;Max_cycle;Signal;HPM_P1;HPM_P2
2023/01/16 00:00:51;;;;;;;4.57;2.83;;;4.70;99.90;;;;;;4873739;29;20083;-80
2023/01/16 00:03:16;;;;;;;8.05;3.15;;;4.70;99.90;;;;;;4852325;29;20053;-81
2023/01/16 00:05:43;;;;;;;4.90;3.35;;;5.00;99.90;;;;;;4897788;29;20437;-81
2023/01/16 00:08:09;;;;;;;;;;;4.60;99.90;;;;;;4875516;29;20478;-81
2023/01/16 00:10:35;;;;;;;8.00;4.25;;;4.60;99.90;;;;;;4878018;29;20387;-81
2023/01/16 00:13:00;;;;;;;10.27;4.03;;;4.60;99.90;;;;;;4868919;29;20047;-81
2023/01/16 00:15:26;;;;;;;7.13;3.58;;;4.60;99.90;;;;;;4874871;29;20044;-81
2023/01/16 00:17:52;;;;;;;6.85;4.00;;;4.60;99.90;;;;;;4873048;29;20126;-81
2023/01/16 00:20:18;;;;;;;5.27;3.33;;;4.60;99.90;;;;;;4872600;29;20076;-81
2023/01/16 00:22:44;;;;;;;6.63;3.55;;;4.60;99.90;;;;;;4859535;29;20296;-80
2023/01/16 00:25:09;;;;;;;6.07;3.00;;;4.60;99.90;;;;;;4856489;29;20047;-81
2023/01/16 00:27:35;;;;;;;6.40;2.67;;;4.60;99.90;;;;;;4873047;29;20285;-81
2023/01/16 00:30:01;;;;;;;6.25;2.97;;;5.00;99.90;;;;;;4879459;29;20044;-81
2023/01/16 00:32:27;;;;;;;5.03;2.80;;;4.60;99.90;;;;;;4877600;29;20040;-81
2023/01/16 00:34:53;;;;;;;5.90;3.33;;;4.50;99.90;;;;;;4888744;29;20059;-81
2023/01/16 00:37:18;;;;;;;4.83;2.37;;;4.50;99.90;;;;;;4895961;29;20320;-81
2023/01/16 00:39:44;;;;;;;5.72;3.38;;;4.40;99.90;;;;;;4867925;29;20044;-80
2023/01/16 00:42:10;;;;;;;7.03;2.90;;;4.40;99.90;;;;;;4848342;29;20120;-80
2023/01/16 00:44:35;;;;;;;7.33;3.47;;;4.40;99.90;;;;;;4881306;29;20044;-80
2023/01/16 00:47:01;;;;;;;5.85;3.05;;;4.30;99.90;;;;;;4865591;29;20845;-81
2023/01/16 00:49:27;;;;;;;7.18;2.80;;;4.20;99.90;;;;;;4890433;29;20115;-80
2023/01/16 00:51:53;;;;;;;4.80;2.60;;;4.20;99.90;;;;;;4877437;29;20457;-80
2023/01/16 00:54:19;;;;;;;6.78;2.25;;;4.20;99.90;;;;;;4849140;29;20073;-80
2023/01/16 00:56:44;;;;;;;5.97;3.13;;;4.10;99.90;;;;;;4892082;29;20036;-80
2023/01/16 00:59:11;;;;;;;4.72;2.20;;;4.00;99.90;;;;;;4876395;29;20143;-80
2023/01/16 01:01:37;;;;;;;6.90;2.15;;;4.60;99.90;;;;;;4869757;29;20052;-80
2023/01/16 01:04:03;;;;;;;5.22;2.83;;;4.70;99.90;;;;;;4870036;29;20449;-80
2023/01/16 01:06:29;;;;;;;4.97;2.47;;;4.80;99.90;;;;;;4868801;29;20127;-80
2023/01/16 01:08:56;;;;;;;4.97;2.30;;;5.10;99.90;;;;;;4892514;29;20048;-80
2023/01/16 01:11:22;;;;;;;4.95;2.45;;;4.00;99.90;;;;;;4874462;29;20036;-80
2023/01/16 01:13:48;;;;;;;7.75;2.72;;;3.80;99.90;;;;;;4890087;29;20427;-80
2023/01/16 01:16:14;;;;;;;10.45;2.55;;;4.30;99.90;;;;;;4872498;29;20100;-80
2023/01/16 01:18:40;;;;;;;9.65;3.10;;;3.60;99.90;;;;;;4888065;29;20072;-80
2023/01/16 01:21:06;;;;;;;8.27;2.42;;;4.00;99.90;;;;;;4887140;29;20493;-80
2023/01/16 01:23:32;;;;;;;7.70;2.70;;;3.80;99.90;;;;;;4861251;29;20457;-80
2023/01/16 01:25:58;;;;;;;5.93;2.20;;;3.70;99.90;;;;;;4869959;29;20135;-80
2023/01/16 01:28:24;;;;;;;6.32;2.70;;;3.70;99.90;;;;;;4896472;29;20436;-80
2023/01/16 01:30:49;;;;;;;5.00;2.70;;;3.80;99.90;;;;;;4855721;29;20465;-80
2023/01/16 01:33:15;;;;;;;4.32;2.75;;;3.80;99.90;;;;;;4889103;29;20043;-80
2023/01/16 01:35:41;;;;;;;8.23;2.43;;;3.80;99.90;;;;;;4873968;29;20047;-80
2023/01/16 01:38:06;;;;;;;5.85;2.47;;;4.40;99.90;;;;;;4869612;29;20060;-80
2023/01/16 01:40:33;;;;;;;4.47;2.20;;;4.30;99.90;;;;;;4871848;29;20051;-80
2023/01/16 01:42:59;;;;;;;6.43;2.50;;;3.70;99.90;;;;;;4886131;29;20049;-80
2023/01/16 01:45:27;;;;;;;5.10;2.45;;;3.70;99.90;;;;;;4868764;29;20033;-80
2023/01/16 01:48:04;;;;;;;9.68;2.70;;;3.70;99.90;;;;;;4882579;29;20100;-80
2023/01/16 01:50:38;;;;;;;5.32;2.60;;;3.60;99.90;;;;;;4880007;29;20434;-80
2023/01/16 01:53:16;;;;;;;4.07;2.53;;;3.60;99.90;;;;;;4891828;29;20397;-80
2023/01/16 01:55:46;;;;;;;5.28;2.40;;;3.60;99.90;;;;;;4880733;29;20111;-80
2023/01/16 01:58:20;;;;;;;7.75;2.85;;;3.70;99.90;;;;;;4889914;29;20044;-80
2023/01/16 02:00:47;;;;;;;5.55;2.78;;;4.40;99.90;;;;;;4880512;29;20051;-80
2023/01/16 02:03:18;;;;;;;5.00;2.78;;;3.70;99.90;;;;;;4879051;29;20045;-80
2023/01/16 02:05:49;;;;;;;5.47;2.40;;;3.60;99.90;;;;;;4891051;29;20453;-80
2023/01/16 02:08:18;;;;;;;7.20;2.22;;;4.80;99.90;;;;;;4874557;29;20183;-80
2023/01/16 02:11:02;;;;;;;6.60;2.50;;;4.60;99.90;;;;;;4869615;29;20039;-80
2023/01/16 02:13:28;;;;;;;6.45;2.70;;;4.20;99.90;;;;;;4884394;29;20044;-80
2023/01/16 02:21:36;;;;;;;8.40;2.60;;;4.10;99.90;;;;;;4873685;29;20421;-80
2023/01/16 02:24:29;;;;;;;6.00;2.60;;;3.80;99.90;;;;;;4887933;29;20405;-80
2023/01/16 02:27:07;;;;;;;7.70;3.00;;;3.80;99.90;;;;;;4883036;29;20040;-80
2023/01/16 02:30:00;;;;;;;9.75;3.03;;;3.80;99.90;;;;;;4885390;29;20548;-80
2023/01/16 02:33:00;;;;;;;5.80;1.95;;;3.90;99.90;;;;;;4884092;29;20109;-81
2023/01/16 02:35:39;;;;;;;8.55;2.10;;;3.90;99.90;;;;;;4880220;29;20095;-80
2023/01/16 02:38:13;;;;;;;6.35;2.47;;;4.00;99.90;;;;;;4882311;29;20056;-80
2023/01/16 02:41:02;;;;;;;5.45;2.80;;;4.10;99.90;;;;;;4867880;29;20044;-80
2023/01/16 02:43:39;;;;;;;9.00;2.83;;;4.00;99.90;;;;;;4885761;29;20036;-80
2023/01/16 02:46:14;;;;;;;6.32;2.60;;;4.80;99.90;;;;;;4874273;29;20049;-80
2023/01/16 02:49:03;;;;;;;6.22;2.22;;;4.20;99.90;;;;;;4888864;29;20047;-80
2023/01/16 02:51:58;;;;;;;7.38;2.50;;;4.10;99.90;;;;;;4868381;29;20096;-80
2023/01/16 02:54:38;;;;;;;7.85;2.35;;;4.10;99.90;;;;;;4863089;29;20044;-80
2023/01/16 02:57:08;;;;;;;6.15;1.98;;;4.10;99.90;;;;;;4871791;29;20076;-80
2023/01/16 02:59:34;;;;;;;6.75;2.25;;;5.30;99.90;;;;;;4873190;29;20043;-80
2023/01/16 03:02:02;;;;;;;6.30;2.50;;;4.20;99.90;;;;;;4876826;29;20048;-80
2023/01/16 03:04:50;;;;;;;7.03;2.50;;;4.20;99.90;;;;;;4884528;29;20048;-80
2023/01/16 03:07:29;;;;;;;7.95;2.60;;;4.10;99.90;;;;;;4884020;29;20585;-80
2023/01/16 03:10:25;;;;;;;5.70;2.20;;;4.20;99.90;;;;;;4872987;29;20076;-80
2023/01/16 03:13:09;;;;;;;10.98;3.53;;;4.20;99.90;;;;;;4878312;29;20127;-80
2023/01/16 03:15:41;;;;;;;6.03;2.20;;;4.20;99.90;;;;;;4886559;29;20075;-80
2023/01/16 03:19:04;;;;;;;4.68;2.72;;;4.20;99.90;;;;;;4881845;29;20045;-80
2023/01/16 03:22:02;;;;;;;8.48;3.28;;;4.20;99.90;;;;;;4852952;29;20538;-80
2023/01/16 03:24:55;;;;;;;;;;;4.40;99.90;;;;;;4888971;29;20059;-80
2023/01/16 03:28:04;;;;;;;8.02;2.47;;;4.10;99.90;;;;;;4869196;29;19927;-80
2023/01/16 03:30:52;;;;;;;9.23;2.45;;;4.10;99.90;;;;;;4864326;29;20052;-80
2023/01/16 03:34:02;;;;;;;8.60;2.83;;;4.10;99.90;;;;;;4886293;29;20042;-80
2023/01/16 03:36:56;;;;;;;5.78;2.53;;;4.10;99.90;;;;;;4884304;29;20088;-80
2023/01/16 03:39:28;;;;;;;8.20;2.47;;;4.00;99.90;;;;;;4862334;29;20040;-80
2023/01/16 03:42:00;;;;;;;8.50;2.13;;;4.00;99.90;;;;;;4893511;29;20531;-80
2023/01/16 03:44:39;;;;;;;8.20;3.28;;;5.00;99.90;;;;;;4892391;29;20069;-80
2023/01/16 03:47:09;;;;;;;4.47;2.28;;;3.80;99.90;;;;;;4881954;29;20084;-81
2023/01/16 03:49:41;;;;;;;3.58;2.65;;;3.80;99.90;;;;;;4866346;29;20048;-81
2023/01/16 03:52:12;;;;;;;5.30;1.98;;;3.80;99.90;;;;;;4867989;29;20091;-80
2023/01/16 03:54:53;;;;;;;6.20;2.15;;;3.90;99.90;;;;;;4883728;29;20044;-80
2023/01/16 03:57:30;;;;;;;3.85;2.15;;;3.70;99.90;;;;;;4883725;29;20032;-80
2023/01/16 03:59:56;;;;;;;4.80;1.98;;;3.70;99.90;;;;;;4890288;29;20426;-81
2023/01/16 04:02:24;;;;;;;6.20;2.55;;;3.80;99.90;;;;;;4851140;29;20070;-80
2023/01/16 04:05:06;;;;;;;6.10;2.47;;;3.80;99.90;;;;;;4890049;29;20046;-80
2023/01/16 04:07:59;;;;;;;8.32;2.55;;;3.90;99.90;;;;;;4871199;29;20056;-80
2023/01/16 04:10:30;;;;;;;6.10;2.53;;;3.90;99.90;;;;;;4866297;29;20044;-81
2023/01/16 04:13:05;;;;;;;7.53;3.03;;;4.10;99.90;;;;;;4885808;29;20481;-80
2023/01/16 04:15:34;;;;;;;4.72;2.42;;;3.90;99.90;;;;;;4889509;29;20047;-80
2023/01/16 04:18:00;;;;;;;6.90;2.47;;;4.80;99.90;;;;;;4885510;29;20055;-81
2023/01/16 04:20:28;;;;;;;6.20;2.67;;;4.00;99.90;;;;;;4874623;29;20043;-80
2023/01/16 04:22:54;;;;;;;5.25;2.42;;;3.90;99.90;;;;;;4878412;29;20178;-80
2023/01/16 04:25:21;;;;;;;9.67;3.10;;;4.00;99.90;;;;;;4858420;29;20076;-80
2023/01/16 04:27:46;;;;;;;5.60;2.50;;;3.90;99.90;;;;;;4869763;29;20658;-81
2023/01/16 04:30:15;;;;;;;6.93;3.08;;;3.90;99.90;;;;;;4861884;29;20040;-81
2023/01/16 04:32:41;;;;;;;8.05;2.70;;;3.90;99.90;;;;;;4877178;29;20087;-80
2023/01/16 04:35:07;;;;;;;7.20;2.95;;;4.70;99.90;;;;;;4895078;29;20048;-80
2023/01/16 04:37:33;;;;;;;7.05;2.90;;;3.90;99.90;;;;;;4850786;29;20137;-81
2023/01/16 04:39:59;;;;;;;6.88;2.65;;;3.80;99.90;;;;;;4888336;29;20052;-81
2023/01/16 04:42:25;;;;;;;;;;;3.90;99.90;;;;;;4897851;29;20620;-81
2023/01/16 04:44:51;;;;;;;8.20;3.53;;;4.00;99.90;;;;;;4896582;29;19935;-80
2023/01/16 04:47:17;;;;;;;6.70;3.70;;;4.60;99.90;;;;;;4842325;29;20463;-80
2023/01/16 04:49:42;;;;;;;13.65;3.70;;;4.00;99.90;;;;;;4872062;29;20037;-81
2023/01/16 04:52:11;;;;;;;8.00;3.88;;;4.00;99.90;;;;;;4876347;29;20461;-80
2023/01/16 04:54:36;;;;;;;10.05;4.25;;;4.00;99.90;;;;;;4882791;29;20123;-80
2023/01/16 04:57:03;;;;;;;6.90;3.97;;;4.30;99.90;;;;;;4890101;29;20172;-81
2023/01/16 04:59:28;;;;;;;8.88;4.10;;;3.90;99.90;;;;;;4869397;29;20376;-81
2023/01/16 05:01:54;;;;;;;9.82;4.53;;;3.90;99.90;;;;;;4887356;29;20123;-80
2023/01/16 05:04:20;;;;;;;8.73;3.60;;;4.20;99.90;;;;;;4885573;29;20040;-81
2023/01/16 05:06:46;;;;;;;12.63;4.38;;;3.90;99.90;;;;;;4850840;29;20722;-81
2023/01/16 05:09:12;;;;;;;8.85;4.57;;;4.00;99.90;;;;;;4887956;29;20462;-81
2023/01/16 05:11:38;;;;;;;8.63;3.47;;;4.00;99.90;;;;;;4894606;29;20040;-80
2023/01/16 05:14:07;;;;;;;10.88;3.80;;;4.10;99.90;;;;;;4887836;29;20024;-81
2023/01/16 05:16:35;;;;;;;7.93;3.47;;;4.10;99.90;;;;;;4882724;29;20044;-80
2023/01/16 05:19:01;;;;;;;9.80;4.38;;;4.20;99.90;;;;;;4889849;29;20048;-80
2023/01/16 05:21:27;;;;;;;10.50;4.78;;;4.00;99.90;;;;;;4867521;29;20044;-80
2023/01/16 05:23:52;;;;;;;9.52;4.53;;;4.90;99.90;;;;;;4853627;29;20127;-81
2023/01/16 05:26:18;;;;;;;13.67;4.40;;;4.60;99.90;;;;;;4883691;29;20127;-81
2023/01/16 05:28:44;;;;;;;12.15;5.20;;;5.00;99.90;;;;;;4855228;29;20048;-81
2023/01/16 05:31:10;;;;;;;14.13;4.80;;;5.20;99.90;;;;;;4854290;29;20076;-81
2023/01/16 05:33:35;;;;;;;10.65;5.18;;;3.90;99.90;;;;;;4882127;29;20040;-80
2023/01/16 05:36:01;;;;;;;13.47;5.50;;;3.80;99.90;;;;;;4876944;29;20052;-81
2023/01/16 05:38:27;;;;;;;11.15;5.30;;;3.80;99.90;;;;;;4856665;29;20051;-80
2023/01/16 05:40:53;;;;;;;10.55;4.93;;;3.70;99.90;;;;;;4860628;29;20050;-81
2023/01/16 05:43:19;;;;;;;12.27;5.45;;;3.80;99.90;;;;;;4894941;29;20051;-81
2023/01/16 05:45:44;;;;;;;11.15;5.60;;;4.10;99.90;;;;;;4869026;29;20037;-80
2023/01/16 05:48:10;;;;;;;11.68;6.03;;;4.90;99.90;;;;;;4882194;29;20044;-80
2023/01/16 05:50:36;;;;;;;10.10;5.47;;;4.50;99.90;;;;;;4876023;29;20072;-80
2023/01/16 05:53:02;;;;;;;14.40;6.20;;;3.50;99.90;;;;;;4889983;29;20036;-80
2023/01/16 05:55:27;;;;;;;14.00;5.88;;;3.50;99.90;;;;;;4888102;29;20171;-80
2023/01/16 05:57:53;;;;;;;14.95;5.93;;;3.40;99.90;;;;;;4888119;29;20127;-81
2023/01/16 06:00:19;;;;;;;12.70;5.47;;;3.40;99.90;;;;;;4846273;29;20051;-79
2023/01/16 06:02:46;;;;;;;10.73;5.65;;;3.40;99.90;;;;;;4868956;29;20041;-79
2023/01/16 06:05:12;;;;;;;;;;;4.40;99.90;;;;;;4871586;29;20051;-80
2023/01/16 06:07:38;;;;;;;14.43;6.40;;;3.90;99.90;;;;;;4883158;29;19931;-80
2023/01/16 06:10:07;;;;;;;13.18;6.13;;;5.00;99.90;;;;;;4862396;29;20074;-79
2023/01/16 06:12:33;;;;;;;14.38;6.15;;;3.40;99.90;;;;;;4878247;29;20545;-80
2023/01/16 06:14:59;;;;;;;16.92;7.28;;;3.40;99.90;;;;;;4879973;29;20088;-79
2023/01/16 06:17:25;;;;;;;14.40;6.60;;;4.00;99.90;;;;;;4897689;29;20067;-80
2023/01/16 06:19:50;;;;;;;16.80;6.93;;;4.60;99.90;;;;;;4861609;29;20087;-79
2023/01/16 06:22:16;;;;;;;12.52;5.88;;;3.60;99.90;;;;;;4869413;29;20083;-79
2023/01/16 06:24:42;;;;;;;17.95;7.05;;;3.40;99.90;;;;;;4900126;29;20568;-79
2023/01/16 06:27:08;;;;;;;16.15;7.72;;;4.00;99.90;;;;;;4900396;29;20040;-80
2023/01/16 06:29:34;;;;;;;17.90;8.03;;;3.40;99.90;;;;;;4897963;29;20638;-80
2023/01/16 06:31:59;;;;;;;15.57;7.15;;;3.60;99.90;;;;;;4899976;29;20343;-80
2023/01/16 06:34:25;;;;;;;17.80;8.07;;;3.40;99.90;;;;;;4871139;29;20072;-80
2023/01/16 06:36:51;;;;;;;17.80;7.97;;;4.60;99.90;;;;;;4880712;29;20394;-80
2023/01/16 06:39:17;;;;;;;20.85;7.95;;;3.50;99.90;;;;;;4871486;29;20467;-79
2023/01/16 06:41:43;;;;;;;19.45;8.25;;;3.50;99.90;;;;;;4882479;29;20044;-80
2023/01/16 06:44:08;;;;;;;18.42;8.20;;;4.10;99.90;;;;;;4865825;29;20045;-79
2023/01/16 06:46:35;;;;;;;17.93;7.80;;;3.50;99.90;;;;;;4881155;29;20044;-79
2023/01/16 06:49:01;;;;;;;13.77;6.43;;;3.50;99.90;;;;;;4865525;29;20832;-80
2023/01/16 06:51:26;;;;;;;15.63;6.97;;;3.40;99.90;;;;;;4867780;29;20041;-80
2023/01/16 06:53:52;;;;;;;16.42;7.07;;;3.40;99.90;;;;;;4887274;29;20036;-80
2023/01/16 06:56:18;;;;;;;15.00;6.93;;;3.40;99.90;;;;;;4865385;29;20161;-80
2023/01/16 06:58:44;;;;;;;16.33;7.50;;;3.40;99.90;;;;;;4891502;29;20059;-80
2023/01/16 07:01:10;;;;;;;21.52;6.28;;;3.40;99.90;;;;;;4886014;29;20053;-80
2023/01/16 07:03:36;;;;;;;15.75;6.72;;;4.70;99.90;;;;;;4879726;29;20075;-80
2023/01/16 07:06:03;;;;;;;13.40;6.40;;;4.30;99.90;;;;;;4862660;29;20498;-80
2023/01/16 07:08:29;;;;;;;17.60;7.03;;;3.40;99.90;;;;;;4880518;29;20052;-80
2023/01/16 07:10:59;;;;;;;16.88;6.30;;;4.60;99.90;;;;;;4859302;29;20059;-80
2023/01/16 07:13:27;;;;;;;13.73;6.78;;;3.60;99.90;;;;;;4877390;29;20067;-80
2023/01/16 07:24:18;;;;;;;14.30;6.20;;;3.60;99.90;;;;;;4880474;29;20048;-80
2023/01/16 07:26:49;;;;;;;12.77;6.47;;;3.30;99.90;;;;;;4864295;29;20123;-80
2023/01/16 07:29:14;;;;;;;15.93;6.22;;;3.30;99.90;;;;;;4886530;29;20040;-80
2023/01/16 07:31:41;;;;;;;14.52;6.20;;;3.30;99.90;;;;;;4865937;29;20504;-80
2023/01/16 07:34:06;;;;;;;15.35;5.82;;;3.20;99.90;;;;;;4889145;29;20957;-80
2023/01/16 07:36:32;;;;;;;13.10;6.07;;;4.40;99.90;;;;;;4864893;29;20047;-79
2023/01/16 07:38:57;;;;;;;14.00;5.87;;;4.70;99.90;;;;;;4864473;29;20654;-79
2023/01/16 07:41:23;;;;;;;12.27;5.18;;;3.20;99.90;;;;;;4854146;29;20401;-80
2023/01/16 07:43:50;;;;;;;16.00;5.80;;;4.10;99.90;;;;;;4882742;29;20040;-80
2023/01/16 07:46:16;;;;;;;14.32;6.22;;;3.90;99.90;;;;;;4867661;29;20048;-80
2023/01/16 07:48:41;;;;;;;12.32;5.60;;;3.90;99.90;;;;;;4880838;29;20393;-79
2023/01/16 07:51:07;;;;;;;16.20;5.13;;;3.70;99.90;;;;;;4879548;29;20045;-79
2023/01/16 07:53:33;;;;;;;17.67;6.07;;;3.20;99.90;;;;;;4864464;29;20072;-80
2023/01/16 07:56:00;;;;;;;11.30;5.47;;;3.20;99.90;;;;;;4866419;29;20040;-80
2023/01/16 07:58:27;;;;;;;12.25;5.85;;;3.20;99.90;;;;;;4884971;29;20284;-80
2023/01/16 08:00:53;;;;;;;;;;;3.20;99.90;;;;;;4892031;29;20497;-80
2023/01/16 08:03:19;;;;;;;14.88;5.93;;;3.20;99.90;;;;;;4896601;29;19919;-80
2023/01/16 08:05:45;;;;;;;14.60;5.30;;;3.20;99.90;;;;;;4879627;29;20040;-80
2023/01/16 08:08:12;;;;;;;17.63;5.55;;;3.20;99.90;;;;;;4868516;29;20060;-79
2023/01/16 08:10:38;;;;;;;14.00;5.57;;;3.30;99.90;;;;;;4888779;29;20040;-80
2023/01/16 08:13:04;;;;;;;11.02;5.63;;;3.20;99.90;;;;;;4881654;29;20047;-79
2023/01/16 08:15:30;;;;;;;15.52;5.18;;;3.30;99.90;;;;;;4878702;29;20059;-80
2023/01/16 08:17:56;;;;;;;13.75;5.70;;;3.50;99.90;;;;;;4893602;29;20040;-80
2023/01/16 08:20:22;;;;;;;12.18;5.55;;;3.50;99.90;;;;;;4887014;29;20040;-80
2023/01/16 08:22:49;;;;;;;11.85;5.38;;;3.20;99.90;;;;;;4874374;29;20493;-80
2023/01/16 08:25:16;;;;;;;10.75;4.90;;;4.70;99.90;;;;;;4882878;29;20454;-79
2023/01/16 08:27:43;;;;;;;14.13;5.22;;;3.40;99.90;;;;;;4897976;29;20083;-79
2023/01/16 08:30:09;;;;;;;13.35;5.00;;;4.30;99.90;;;;;;4895100;29;20037;-79
2023/01/16 08:32:35;;;;;;;14.50;5.47;;;3.30;99.90;;;;;;4896553;29;20059;-79
2023/01/16 08:35:03;;;;;;;9.85;4.57;;;3.30;99.90;;;;;;4877829;29;20048;-79
2023/01/16 08:37:30;;;;;;;10.38;5.18;;;3.30;99.90;;;;;;4882049;29;20044;-78
2023/01/16 08:39:55;;;;;;;;;;;3.30;99.90;;;;;;4898113;29;20040;-79
2023/01/16 08:53:21;;;;;;;9.85;4.70;;;3.40;99.90;;;;;;4884455;29;20040;-79
2023/01/16 08:55:46;;;;;;;8.75;4.85;;;3.50;99.90;;;;;;4866795;29;20047;-79
2023/01/16 08:58:12;;;;;;;11.65;4.35;;;3.90;99.90;;;;;;4866304;29;20480;-79
2023/01/16 09:00:38;;;;;;;12.10;5.13;;;3.50;99.90;;;;;;4874935;29;20060;-79
2023/01/16 09:03:03;;;;;;;10.63;4.60;;;4.10;99.90;;;;;;4830912;29;20336;-79
2023/01/16 09:05:29;;;;;;;11.30;5.07;;;3.60;99.90;;;;;;4863464;29;20045;-79
2023/01/16 09:07:55;;;;;;;10.15;5.28;;;3.60;99.90;;;;;;4867186;29;20349;-79
2023/01/16 09:10:21;;;;;;;10.40;4.40;;;3.60;99.90;;;;;;4859510;29;20044;-79
2023/01/16 09:15:31;;;;;;;10.05;4.65;;;4.00;99.90;;;;;;4878746;29;20127;-80
2023/01/16 09:17:57;;;;;;;9.95;4.35;;;4.20;99.90;;;;;;4877369;29;20131;-80
2023/01/16 09:20:22;;;;;;;11.50;4.60;;;3.60;99.90;;;;;;4881974;29;20122;-79
2023/01/16 09:22:54;;;;;;;10.98;5.18;;;4.20;99.90;;;;;;4897597;29;20040;-80
2023/01/16 09:25:20;;;;;;;9.68;5.00;;;3.70;99.90;;;;;;4892943;29;20086;-79
2023/01/16 09:27:46;;;;;;;10.50;4.38;;;3.70;99.90;;;;;;4881653;29;20469;-80
2023/01/16 09:30:12;;;;;;;9.93;4.50;;;3.80;99.90;;;;;;4866007;29;20078;-80
2023/01/16 09:32:37;;;;;;;10.10;4.55;;;3.80;99.90;;;;;;4880639;29;20044;-80
2023/01/16 09:35:04;;;;;;;10.50;4.65;;;3.90;99.90;;;;;;4878055;29;20127;-80
2023/01/16 09:37:29;;;;;;;10.85;4.57;;;3.80;99.90;;;;;;4846593;29;20041;-79
2023/01/16 09:39:55;;;;;;;13.07;5.45;;;4.70;99.90;;;;;;4869330;29;20040;-80
2023/01/16 09:45:32;;;;;;;7.65;3.95;;;3.80;99.90;;;;;;4896860;29;20071;-80
2023/01/16 09:48:12;;;;;;;8.50;4.40;;;4.60;99.90;;;;;;4895469;29;20054;-80
2023/01/16 09:50:52;;;;;;;11.20;4.65;;;3.80;99.90;;;;;;4896114;29;20036;-80
2023/01/16 09:59:19;;;;;;;8.65;4.28;;;3.90;99.90;;;;;;4872845;29;20517;-80
2023/01/16 10:01:52;;;;;;;6.93;4.03;;;3.90;99.90;;;;;;4866721;29;20438;-80
2023/01/16 10:04:23;;;;;;;6.07;3.40;;;3.90;99.90;;;;;;4888469;29;20039;-80
2023/01/16 10:06:58;;;;;;;5.13;3.50;;;4.00;99.90;;;;;;4900544;29;20493;-80
2023/01/16 10:09:39;;;;;;;7.95;3.75;;;4.00;99.90;;;;;;4890713;29;20036;-80
2023/01/16 10:12:10;;;;;;;5.82;3.42;;;4.00;99.90;;;;;;4899228;29;20047;-80
2023/01/16 10:15:03;;;;;;;8.25;3.45;;;4.40;99.90;;;;;;4884510;29;20068;-80
2023/01/16 10:17:53;;;;;;;6.47;3.00;;;4.00;99.90;;;;;;4881170;29;20103;-80
2023/01/16 10:20:41;;;;;;;6.55;3.47;;;4.00;99.90;;;;;;4881457;29;20047;-80
2023/01/16 10:23:37;;;;;;;8.68;3.72;;;4.00;99.90;;;;;;4884207;29;20052;-79
2023/01/16 10:26:41;;;;;;;8.43;3.47;;;4.00;99.90;;;;;;4888669;29;20036;-79
2023/01/16 10:29:22;;;;;;;7.35;3.67;;;4.00;99.90;;;;;;4869276;29;20041;-80
2023/01/16 10:32:12;;;;;;;7.15;3.65;;;4.00;99.90;;;;;;4883686;29;20047;-80
2023/01/16 10:35:09;;;;;;;10.30;3.53;;;4.00;99.90;;;;;;4884761;29;20601;-79
2023/01/16 10:37:37;;;;;;;9.00;3.20;;;4.00;99.90;;;;;;4900244;29;20046;-79
2023/01/16 10:40:27;;;;;;;6.10;3.30;;;4.00;99.90;;;;;;4899786;29;20052;-79
2023/01/16 10:51:38;;;;;;;6.47;2.58;;;4.00;99.90;;;;;;4886491;29;20040;-78
2023/01/16 10:54:04;;;;;;;10.75;2.75;;;4.00;99.90;;;;;;4882150;29;20404;-78
2023/01/16 10:56:32;;;;;;;9.90;3.37;;;4.00;99.90;;;;;;4883349;29;20127;-78
2023/01/16 10:58:58;;;;;;;7.90;2.88;;;4.40;99.90;;;;;;4869953;29;20753;-76
2023/01/16 11:01:25;;;;;;;3.07;1.70;;;4.20;99.90;;;;;;4880135;29;20051;-76
2023/01/16 11:03:58;;;;;;;4.10;2.10;;;3.90;99.90;;;;;;4880701;29;20293;-76
2023/01/16 11:06:29;;;;;;;5.30;2.90;;;3.90;99.90;;;;;;4898056;29;20036;-76
2023/01/16 11:09:04;;;;;;;6.50;2.40;;;3.90;99.90;;;;;;4879612;29;20059;-76
2023/01/16 11:20:14;;;;;;;4.35;1.70;;;3.80;99.90;;;;;;4898815;29;20156;-76
2023/01/16 11:22:40;;;;;;;3.15;1.85;;;3.70;99.90;;;;;;4898926;29;20058;-76
2023/01/16 11:25:06;;;;;;;;;;;3.60;99.90;;;;;;4861578;29;20044;-76
2023/01/16 11:27:36;;;;;;;3.17;1.60;;;3.60;99.90;;;;;;4888645;29;19978;-76
2023/01/16 11:30:09;;;;;;;2.10;1.35;;;4.30;99.90;;;;;;4883180;29;20048;-76
2023/01/16 11:32:37;;;;;;;2.47;1.40;;;3.60;99.90;;;;;;4898836;29;20044;-76
2023/01/16 11:35:12;;;;;;;2.35;1.20;;;3.60;99.90;;;;;;4863672;29;20405;-76
2023/01/16 11:37:44;;;;;;;2.75;1.45;;;3.60;99.90;;;;;;4878020;29;20443;-76
2023/01/16 11:40:22;;;;;;;1.75;1.27;;;3.50;99.90;;;;;;4879554;29;20100;-76
2023/01/16 11:46:02;;;;;;;4.43;1.70;;;3.60;99.90;;;;;;4879840;29;20112;-76
2023/01/16 11:48:33;;;;;;;2.78;1.85;;;3.60;99.90;;;;;;4891518;29;20038;-76
2023/01/16 11:50:59;;;;;;;5.28;2.00;;;3.60;99.90;;;;;;4898733;29;20127;-76
2023/01/16 11:53:31;;;;;;;3.83;1.73;;;3.60;99.90;;;;;;4897710;29;20176;-76
2023/01/16 11:56:26;;;;;;;2.60;1.58;;;3.60;99.90;;;;;;4879699;29;20055;-77
2023/01/16 11:59:06;;;;;;;4.45;1.80;;;3.60;99.90;;;;;;4888859;29;20516;-77
2023/01/16 12:07:54;;;;;;;4.82;1.92;;;3.60;99.90;;;;;;4898127;29;20056;-77
2023/01/16 12:10:37;;;;;;;3.20;1.67;;;3.60;99.90;;;;;;4897762;29;20078;-77
2023/01/16 12:16:06;;;;;;;4.68;1.98;;;4.00;99.90;;;;;;4898421;29;20497;-77
2023/01/16 12:19:00;;;;;;;2.92;2.10;;;3.60;99.90;;;;;;4886876;29;20045;-77
2023/01/16 12:21:38;;;;;;;3.13;1.60;;;3.60;99.90;;;;;;4894204;29;20165;-77
2023/01/16 12:24:06;;;;;;;2.60;1.40;;;3.60;99.90;;;;;;4882490;29;20067;-77
2023/01/16 12:26:54;;;;;;;3.25;1.90;;;3.70;99.90;;;;;;4897521;29;20040;-77
2023/01/16 12:29:37;;;;;;;3.25;1.70;;;3.70;99.90;;;;;;4897304;29;20036;-77
2023/01/16 12:32:09;;;;;;;2.53;1.70;;;3.70;99.90;;;;;;4893258;29;20044;-77
2023/01/16 12:35:03;;;;;;;5.25;2.08;;;3.70;99.90;;;;;;4879091;29;20040;-77
2023/01/16 12:37:59;;;;;;;4.93;1.85;;;3.70;99.90;;;;;;4889129;29;20051;-77
2023/01/16 12:40:43;;;;;;;3.80;1.90;;;3.70;99.90;;;;;;4897740;29;20040;-77
2023/01/16 12:43:26;;;;;;;2.20;1.77;;;3.80;99.90;;;;;;4897660;29;20052;-77
2023/01/16 12:45:59;;;;;;;3.83;2.00;;;3.80;99.90;;;;;;4897621;29;20131;-77
2023/01/16 12:48:43;;;;;;;4.40;2.20;;;3.70;99.90;;;;;;4881931;29;20709;-77
2023/01/16 12:51:26;;;;;;;4.55;2.13;;;3.80;99.90;;;;;;4863518;29;20052;-77
2023/01/16 12:54:30;;;;;;;3.90;2.35;;;3.80;99.90;;;;;;4878709;29;20103;-77
2023/01/16 12:57:21;;;;;;;9.50;2.53;;;3.80;99.90;;;;;;4863357;29;20044;-77
2023/01/16 12:59:53;;;;;;;3.80;2.33;;;3.80;99.90;;;;;;4862105;29;20566;-77
2023/01/16 13:02:37;;;;;;;2.67;1.98;;;4.30;99.90;;;;;;4878027;29;20052;-77
2023/01/16 13:05:06;;;;;;;7.03;3.30;;;3.90;99.90;;;;;;4878502;29;20096;-77
2023/01/16 13:07:37;;;;;;;4.60;2.22;;;4.00;99.90;;;;;;4896176;29;20064;-77
2023/01/16 13:15:43;;;;;;;3.97;2.60;;;4.10;99.90;;;;;;4878636;29;20037;-77
2023/01/16 13:18:18;;;;;;;2.58;2.13;;;4.50;99.90;;;;;;4892357;29;20051;-76
2023/01/16 13:20:47;;;;;;;5.03;2.40;;;4.20;99.90;;;;;;4892482;29;20040;-76
2023/01/16 13:23:28;;;;;;;4.15;2.60;;;4.00;99.90;;;;;;4878031;29;20425;-75
2023/01/16 13:26:02;;;;;;;3.03;2.28;;;4.10;99.90;;;;;;4862753;29;20044;-77
2023/01/16 13:28:51;;;;;;;3.58;2.08;;;4.10;99.90;;;;;;4890002;29;20331;-77
2023/01/16 13:31:39;;;;;;;4.15;2.53;;;4.10;99.90;;;;;;4885706;29;20466;-77
2023/01/16 13:34:29;;;;;;;4.00;2.35;;;4.10;99.90;;;;;;4862787;29;20043;-75
2023/01/16 13:37:27;;;;;;;5.50;1.90;;;4.10;99.90;;;;;;4878048;29;20124;-77
2023/01/16 13:40:05;;;;;;;;;;;4.10;99.90;;;;;;4892831;29;20044;-75
2023/01/16 13:42:33;;;;;;;;;;;4.20;99.90;;;;;;4881268;29;19919;-75
2023/01/16 13:47:52;;;;;;;4.22;2.30;;;4.20;99.90;;;;;;4878373;29;20523;-76
2023/01/16 13:50:24;;;;;;;3.10;2.10;;;4.20;99.90;;;;;;4862247;29;20036;-75
2023/01/16 13:52:53;;;;;;;6.35;2.30;;;4.20;99.90;;;;;;4878070;29;20040;-76
2023/01/16 13:55:34;;;;;;;4.18;2.10;;;4.20;99.90;;;;;;4877511;29;20460;-76
2023/01/16 13:58:26;;;;;;;4.88;2.67;;;4.20;99.90;;;;;;4877793;29;20052;-76
2023/01/16 14:01:01;;;;;;;2.92;2.47;;;4.20;99.90;;;;;;4863598;29;20476;-75
2023/01/16 14:03:29;;;;;;;3.58;2.40;;;4.30;99.90;;;;;;4896211;29;20036;-77
2023/01/16 14:06:25;;;;;;;5.57;2.55;;;4.20;99.90;;;;;;4887638;29;20434;-76
2023/01/16 14:09:11;;;;;;;3.83;2.90;;;4.20;99.90;;;;;;4860792;29;20458;-76
2023/01/16 14:11:58;;;;;;;3.63;2.53;;;4.40;99.90;;;;;;4862373;29;20047;-76
2023/01/16 14:17:55;;;;;;;5.28;2.42;;;4.30;99.90;;;;;;4877533;29;20127;-76
2023/01/16 14:20:36;;;;;;;3.67;2.35;;;4.30;99.90;;;;;;4880335;29;20048;-76
2023/01/16 14:25:55;;;;;;;7.53;2.65;;;4.30;99.90;;;;;;4896261;29;20044;-76
2023/01/16 14:28:21;;;;;;;2.65;2.05;;;4.30;99.90;;;;;;4880487;29;20103;-77
2023/01/16 14:30:47;;;;;;;3.60;2.30;;;4.30;99.90;;;;;;4888173;29;20044;-76
2023/01/16 14:33:18;;;;;;;;;;;4.50;99.90;;;;;;4878174;29;20040;-76
2023/01/16 14:35:48;;;;;;;3.53;2.42;;;4.40;99.90;;;;;;4881940;29;19927;-76
2023/01/16 14:38:20;;;;;;;4.88;2.58;;;4.70;99.90;;;;;;4899652;29;20044;-76
2023/01/16 14:56:10;;;;;;;3.97;2.05;;;5.40;99.90;;;;;;4880848;29;20063;-76